createdAt,value
2023-02-03T00:00:45.028Z,7.15
2023-02-03T00:01:47.433Z,7.22
2023-02-03T00:02:49.838Z,7.73
2023-02-03T00:03:52.187Z,7.55
2023-02-03T00:04:54.549Z,7.65
2023-02-03T00:05:57.103Z,7.65
2023-02-03T00:06:59.564Z,7.38
2023-02-03T00:08:03.573Z,7.78
2023-02-03T00:09:06.021Z,7.73
2023-02-03T00:10:08.845Z,7.65
2023-02-03T00:11:11.171Z,7.18
2023-02-03T00:12:14.059Z,6.93
2023-02-03T00:13:16.479Z,6.83
2023-02-03T00:14:18.819Z,6.87
2023-02-03T00:15:23.285Z,6.57
2023-02-03T00:16:25.699Z,5.88
2023-02-03T00:17:28.140Z,5.88
2023-02-03T00:18:30.479Z,6.07
2023-02-03T00:19:32.849Z,6.58
2023-02-03T00:20:35.240Z,6.27
2023-02-03T00:21:37.576Z,5.95
2023-02-03T00:22:39.932Z,5.88
2023-02-03T00:23:42.793Z,5.23
2023-02-03T00:24:45.146Z,5.90
2023-02-03T00:25:47.511Z,6.12
2023-02-03T00:26:50.005Z,6.50
2023-02-03T00:27:52.375Z,6.03
2023-02-03T00:28:54.682Z,6.23
2023-02-03T00:29:57.100Z,6.02
2023-02-03T00:30:59.433Z,5.90
2023-02-03T00:32:01.946Z,6.55
2023-02-03T00:33:04.873Z,6.00
2023-02-03T00:34:07.593Z,5.92
2023-02-03T00:35:09.928Z,6.05
2023-02-03T00:36:12.602Z,6.18
2023-02-03T00:37:15.001Z,5.98
2023-02-03T00:38:17.362Z,5.58
2023-02-03T00:39:19.701Z,6.25
2023-02-03T00:40:25.205Z,6.13
2023-02-03T00:41:30.399Z,6.50
2023-02-03T00:42:34.694Z,6.38
2023-02-03T00:43:37.012Z,6.10
2023-02-03T00:44:39.357Z,5.35
2023-02-03T00:45:42.280Z,5.70
2023-02-03T00:46:44.600Z,5.30
2023-02-03T00:47:46.894Z,6.15
2023-02-03T00:48:49.249Z,6.20
2023-02-03T00:49:51.723Z,5.40
2023-02-03T00:50:54.103Z,5.67
2023-02-03T00:51:56.449Z,5.90
2023-02-03T00:52:58.788Z,5.75
2023-02-03T00:54:01.289Z,5.80
2023-02-03T00:55:04.593Z,6.02
2023-02-03T00:56:12.622Z,6.88
2023-02-03T00:57:15.084Z,6.40
2023-02-03T00:58:17.557Z,6.18
2023-02-03T00:59:19.894Z,6.27
2023-02-03T01:00:24.877Z,6.13
2023-02-03T01:01:27.391Z,6.38
2023-02-03T01:02:29.854Z,6.58
2023-02-03T01:03:32.287Z,6.23
2023-02-03T01:04:34.612Z,6.42
2023-02-03T01:05:37.780Z,6.40
2023-02-03T01:06:40.665Z,6.35
2023-02-03T01:07:42.969Z,6.38
2023-02-03T01:08:46.301Z,6.72
2023-02-03T01:09:48.630Z,6.33
2023-02-03T01:10:50.995Z,6.52
2023-02-03T01:11:53.382Z,6.53
2023-02-03T01:12:55.769Z,5.98
2023-02-03T01:14:01.681Z,6.20
2023-02-03T01:15:04.403Z,5.50
2023-02-03T01:16:10.579Z,5.95
2023-02-03T01:17:12.950Z,5.70
2023-02-03T01:18:15.600Z,5.78
2023-02-03T01:19:18.101Z,6.20
2023-02-03T01:20:21.699Z,6.22
2023-02-03T01:21:26.100Z,5.87
2023-02-03T01:22:31.770Z,5.62
2023-02-03T01:23:35.057Z,5.27
2023-02-03T01:24:37.537Z,5.67
2023-02-03T01:25:39.864Z,5.88
2023-02-03T01:26:42.741Z,6.25
2023-02-03T01:27:45.128Z,5.83
2023-02-03T01:28:54.517Z,5.27
2023-02-03T01:29:56.835Z,5.27
2023-02-03T01:31:10.247Z,5.47
2023-02-03T01:32:12.739Z,5.60
2023-02-03T01:33:15.051Z,4.95
2023-02-03T01:34:18.612Z,5.18
2023-02-03T01:35:20.986Z,5.62
2023-02-03T01:36:26.077Z,5.50
2023-02-03T01:37:28.429Z,5.35
2023-02-03T01:38:30.834Z,5.53
2023-02-03T01:39:33.189Z,5.77
2023-02-03T01:40:43.285Z,5.82
2023-02-03T01:41:46.182Z,6.07
2023-02-03T01:42:48.524Z,6.27
2023-02-03T01:43:54.023Z,6.28
2023-02-03T01:44:57.720Z,5.08
2023-02-03T01:46:05.543Z,5.62
2023-02-03T01:47:18.923Z,6.22
2023-02-03T01:48:21.270Z,5.88
2023-02-03T01:49:29.076Z,5.80
2023-02-03T01:50:35.017Z,5.45
2023-02-03T01:51:40.336Z,6.03
2023-02-03T01:52:45.678Z,6.48
2023-02-03T01:53:49.606Z,5.67
2023-02-03T01:54:55.137Z,6.08
2023-02-03T01:55:57.933Z,5.77
2023-02-03T01:57:16.856Z,5.48
2023-02-03T01:58:26.018Z,5.55
2023-02-03T01:59:30.142Z,6.10
2023-02-03T02:00:51.181Z,5.65
2023-02-03T02:01:56.863Z,5.37
2023-02-03T02:03:01.943Z,5.50
2023-02-03T02:04:04.903Z,5.12
2023-02-03T02:05:16.971Z,5.50
2023-02-03T02:06:19.418Z,5.55
2023-02-03T02:07:21.806Z,5.17
2023-02-03T02:08:24.197Z,4.92
2023-02-03T02:09:27.105Z,5.05
2023-02-03T02:10:33.578Z,5.55
2023-02-03T02:11:35.919Z,5.47
2023-02-03T02:12:38.325Z,5.20
2023-02-03T02:13:42.777Z,5.15
2023-02-03T02:14:46.244Z,5.57
2023-02-03T02:16:00.417Z,5.32
2023-02-03T02:17:14.403Z,5.08
2023-02-03T02:19:01.476Z,5.37
2023-02-03T02:20:30.457Z,5.63
2023-02-03T02:21:44.578Z,5.47
2023-02-03T02:23:11.724Z,5.60
2023-02-03T02:24:49.554Z,5.22
2023-02-03T02:26:16.248Z,5.88
2023-02-03T02:27:36.681Z,5.35
2023-02-03T02:28:52.515Z,5.53
2023-02-03T02:30:16.396Z,6.05
2023-02-03T02:31:18.762Z,5.87
2023-02-03T02:32:41.342Z,6.12
2023-02-03T02:34:14.990Z,5.42
2023-02-03T02:35:20.296Z,5.73
2023-02-03T02:36:33.201Z,5.45
2023-02-03T02:37:43.548Z,5.48
2023-02-03T02:39:21.630Z,5.70
2023-02-03T02:40:49.504Z,6.08
2023-02-03T02:42:32.098Z,5.67
2023-02-03T02:43:37.433Z,5.65
2023-02-03T02:44:45.580Z,5.72
2023-02-03T02:45:54.717Z,5.47
2023-02-03T02:47:06.522Z,5.85
2023-02-03T02:48:15.942Z,5.65
2023-02-03T02:49:34.579Z,5.30
2023-02-03T02:50:41.595Z,5.40
2023-02-03T02:51:45.403Z,5.07
2023-02-03T02:52:49.528Z,5.33
2023-02-03T02:53:56.163Z,5.17
2023-02-03T02:55:03.846Z,5.35
2023-02-03T02:56:10.229Z,5.40
2023-02-03T02:57:15.506Z,5.43
2023-02-03T02:58:20.025Z,5.03
2023-02-03T02:59:22.652Z,5.83
2023-02-03T03:00:25.340Z,5.47
2023-02-03T03:01:27.866Z,5.45
2023-02-03T03:02:33.997Z,5.35
2023-02-03T03:03:40.595Z,5.57
2023-02-03T03:04:46.976Z,5.43
2023-02-03T03:05:56.601Z,5.18
2023-02-03T03:07:06.682Z,5.70
2023-02-03T03:08:12.365Z,5.87
2023-02-03T03:10:01.177Z,5.40
2023-02-03T03:11:04.506Z,6.00
2023-02-03T03:12:17.307Z,5.85
2023-02-03T03:13:26.034Z,5.50
2023-02-03T03:14:31.399Z,5.95
2023-02-03T03:15:35.530Z,6.08
2023-02-03T03:16:39.672Z,6.08
2023-02-03T03:17:46.115Z,6.28
2023-02-03T03:19:01.976Z,5.52
2023-02-03T03:20:11.931Z,5.48
2023-02-03T03:21:20.124Z,6.38
2023-02-03T03:22:28.608Z,6.42
2023-02-03T03:23:34.859Z,6.05
2023-02-03T03:24:49.071Z,5.58
2023-02-03T03:25:59.797Z,5.40
2023-02-03T03:27:17.615Z,5.58
2023-02-03T03:28:26.767Z,5.33
2023-02-03T03:29:29.044Z,5.13
2023-02-03T03:30:37.619Z,5.48
2023-02-03T03:31:41.317Z,5.75
2023-02-03T03:32:44.390Z,5.67
2023-02-03T03:33:48.255Z,5.52
2023-02-03T03:34:51.300Z,5.55
2023-02-03T03:36:14.898Z,5.23
2023-02-03T03:37:45.531Z,5.70
2023-02-03T03:39:04.129Z,5.55
2023-02-03T03:40:12.757Z,5.35
2023-02-03T03:41:49.745Z,5.38
2023-02-03T03:42:58.789Z,5.30
2023-02-03T03:44:04.234Z,5.20
2023-02-03T03:45:22.666Z,5.48
2023-02-03T03:46:30.448Z,5.30
2023-02-03T03:47:44.103Z,5.48
2023-02-03T03:49:06.685Z,5.35
2023-02-03T03:50:13.964Z,5.87
2023-02-03T03:51:35.318Z,5.22
2023-02-03T03:52:39.196Z,5.08
2023-02-03T03:53:43.970Z,5.48
2023-02-03T03:54:48.233Z,5.52
2023-02-03T03:55:53.024Z,5.52
2023-02-03T03:57:02.550Z,5.38
2023-02-03T03:58:09.625Z,5.72
2023-02-03T03:59:14.570Z,5.77
2023-02-03T04:00:19.386Z,5.63
2023-02-03T04:01:23.826Z,5.32
2023-02-03T04:02:27.097Z,5.63
2023-02-03T04:03:40.243Z,6.32
2023-02-03T04:04:44.119Z,6.08
2023-02-03T04:05:46.530Z,5.97
2023-02-03T04:06:48.926Z,5.65
2023-02-03T04:07:51.281Z,6.37
2023-02-03T04:08:53.837Z,6.17
2023-02-03T04:09:56.173Z,6.25
2023-02-03T04:10:58.552Z,6.55
2023-02-03T04:12:03.493Z,6.60
2023-02-03T04:13:06.839Z,9.25
2023-02-03T04:14:09.186Z,11.02
2023-02-03T04:15:11.612Z,9.93
2023-02-03T04:16:13.981Z,7.57
2023-02-03T04:17:16.391Z,6.55
2023-02-03T04:18:18.812Z,6.33
2023-02-03T04:19:21.220Z,6.12
2023-02-03T04:20:24.942Z,6.20
2023-02-03T04:21:27.587Z,6.63
2023-02-03T04:22:29.931Z,7.23
2023-02-03T04:23:32.236Z,7.48
2023-02-03T04:24:34.546Z,8.40
2023-02-03T04:25:36.987Z,9.77
2023-02-03T04:26:39.766Z,11.48
2023-02-03T04:27:42.206Z,12.97
2023-02-03T04:28:45.094Z,13.37
2023-02-03T04:29:47.678Z,11.98
2023-02-03T04:30:50.069Z,10.03
2023-02-03T04:31:52.494Z,9.17
2023-02-03T04:32:54.900Z,8.02
2023-02-03T04:33:57.320Z,8.27
2023-02-03T04:34:59.971Z,8.20
2023-02-03T04:36:02.293Z,8.60
2023-02-03T04:37:04.678Z,9.00
2023-02-03T04:38:07.026Z,8.75
2023-02-03T04:39:09.375Z,8.92
2023-02-03T04:40:12.779Z,9.13
2023-02-03T04:41:15.167Z,9.18
2023-02-03T04:42:17.774Z,8.95
2023-02-03T04:43:20.079Z,8.73
2023-02-03T04:44:22.437Z,8.32
2023-02-03T04:45:24.880Z,11.00
2023-02-03T04:46:27.281Z,14.92
2023-02-03T04:47:29.667Z,14.02
2023-02-03T04:48:32.063Z,13.48
2023-02-03T04:49:34.432Z,11.25
2023-02-03T04:50:36.733Z,9.57
2023-02-03T04:51:39.181Z,10.47
2023-02-03T04:52:41.525Z,11.07
2023-02-03T04:53:44.105Z,12.48
2023-02-03T04:54:46.449Z,12.60
2023-02-03T04:55:49.093Z,14.88
2023-02-03T04:56:51.605Z,15.02
2023-02-03T04:57:58.075Z,17.33
2023-02-03T04:59:00.399Z,15.58
2023-02-03T05:00:02.838Z,16.60
2023-02-03T05:01:12.244Z,15.48
2023-02-03T05:02:14.717Z,14.42
2023-02-03T05:03:17.212Z,12.68
2023-02-03T05:04:19.593Z,12.18
2023-02-03T05:05:21.909Z,11.38
2023-02-03T05:06:25.925Z,11.20
2023-02-03T05:07:28.304Z,10.43
2023-02-03T05:08:31.235Z,10.03
2023-02-03T05:09:33.597Z,10.35
2023-02-03T05:10:35.997Z,9.62
2023-02-03T05:11:38.346Z,10.10
2023-02-03T05:12:40.689Z,9.98
2023-02-03T05:13:43.028Z,9.80
2023-02-03T05:14:45.397Z,9.73
2023-02-03T05:15:47.769Z,9.67
2023-02-03T05:16:50.231Z,10.02
2023-02-03T05:17:53.842Z,12.20
2023-02-03T05:18:56.416Z,15.43
2023-02-03T05:19:58.780Z,16.20
2023-02-03T05:21:01.141Z,23.13
2023-02-03T05:22:03.514Z,23.15
2023-02-03T05:23:05.936Z,24.12
2023-02-03T05:24:08.572Z,20.80
2023-02-03T05:25:10.963Z,20.67
2023-02-03T05:26:13.341Z,15.47
2023-02-03T05:27:15.735Z,10.38
2023-02-03T05:28:18.281Z,10.55
2023-02-03T05:29:20.719Z,11.72
2023-02-03T05:30:23.095Z,14.35
2023-02-03T05:31:25.563Z,15.88
2023-02-03T05:32:27.909Z,18.03
2023-02-03T05:33:30.969Z,18.90
2023-02-03T05:34:33.372Z,18.35
2023-02-03T05:35:35.984Z,16.90
2023-02-03T05:36:38.367Z,16.40
2023-02-03T05:37:40.775Z,16.83
2023-02-03T05:38:43.176Z,15.10
2023-02-03T05:39:45.543Z,14.80
2023-02-03T05:41:07.616Z,14.23
2023-02-03T05:42:09.960Z,12.77
2023-02-03T05:43:12.319Z,12.28
2023-02-03T05:44:14.753Z,11.20
2023-02-03T05:45:17.618Z,9.32
2023-02-03T05:46:20.529Z,9.32
2023-02-03T05:47:22.882Z,8.70
2023-02-03T05:48:25.190Z,8.63
2023-02-03T05:49:27.533Z,7.87
2023-02-03T05:50:33.386Z,7.83
2023-02-03T05:51:35.859Z,6.83
2023-02-03T05:52:38.254Z,7.08
2023-02-03T05:53:40.602Z,7.00
2023-02-03T05:54:42.960Z,6.93
2023-02-03T05:55:45.422Z,7.80
2023-02-03T05:56:48.048Z,7.18
2023-02-03T05:57:50.375Z,7.17
2023-02-03T05:58:53.515Z,7.13
2023-02-03T05:59:55.901Z,7.62
2023-02-03T06:00:58.306Z,7.67
2023-02-03T06:02:00.690Z,7.22
2023-02-03T06:03:03.649Z,7.53
2023-02-03T06:04:06.611Z,7.50
2023-02-03T06:05:09.412Z,7.72
2023-02-03T06:06:11.856Z,7.40
2023-02-03T06:07:14.176Z,7.27
2023-02-03T06:08:16.676Z,7.43
2023-02-03T06:09:19.010Z,7.75
2023-02-03T06:10:22.191Z,8.27
2023-02-03T06:11:24.903Z,8.65
2023-02-03T06:12:29.104Z,8.92
2023-02-03T06:13:31.834Z,8.80
2023-02-03T06:14:34.200Z,8.87
2023-02-03T06:15:36.694Z,8.22
2023-02-03T06:16:39.113Z,6.97
2023-02-03T06:17:49.030Z,6.77
2023-02-03T06:18:53.262Z,6.85
2023-02-03T06:19:55.661Z,6.57
2023-02-03T06:20:57.999Z,6.30
2023-02-03T06:22:00.385Z,7.18
2023-02-03T06:23:02.695Z,7.73
2023-02-03T06:24:05.146Z,8.23
2023-02-03T06:25:07.874Z,8.73
2023-02-03T06:26:10.590Z,23.98
2023-02-03T06:27:12.953Z,24.27
2023-02-03T06:28:15.661Z,15.55
2023-02-03T06:29:18.136Z,13.87
2023-02-03T06:30:20.870Z,9.87
2023-02-03T06:31:23.930Z,8.77
2023-02-03T06:32:26.542Z,7.82
2023-02-03T06:33:28.857Z,7.40
2023-02-03T06:34:31.265Z,8.28
2023-02-03T06:35:33.659Z,9.08
2023-02-03T06:36:37.396Z,8.83
2023-02-03T06:37:40.595Z,8.17
2023-02-03T06:38:43.092Z,8.38
2023-02-03T06:39:45.434Z,8.40
2023-02-03T06:40:48.153Z,7.95
2023-02-03T06:41:52.037Z,6.55
2023-02-03T06:42:56.507Z,6.02
2023-02-03T06:44:01.208Z,6.10
2023-02-03T06:45:05.363Z,5.98
2023-02-03T06:46:09.675Z,6.02
2023-02-03T06:47:17.006Z,6.23
2023-02-03T06:48:19.595Z,6.53
2023-02-03T06:49:22.662Z,6.47
2023-02-03T06:50:25.538Z,6.48
2023-02-03T06:51:29.938Z,6.72
2023-02-03T06:52:32.337Z,6.67
2023-02-03T06:53:39.383Z,6.92
2023-02-03T06:54:43.580Z,6.92
2023-02-03T06:55:51.447Z,6.73
2023-02-03T06:58:21.638Z,7.12
2023-02-03T06:59:24.256Z,7.77
2023-02-03T07:00:26.951Z,7.40
2023-02-03T07:01:30.925Z,7.13
2023-02-03T07:02:33.304Z,7.52
2023-02-03T07:03:35.722Z,7.65
2023-02-03T07:04:39.050Z,7.83
2023-02-03T07:05:41.494Z,7.53
2023-02-03T07:06:43.956Z,7.25
2023-02-03T07:07:46.353Z,7.32
2023-02-03T07:08:48.823Z,7.55
2023-02-03T07:09:51.396Z,8.22
2023-02-03T07:10:55.023Z,7.63
2023-02-03T07:11:57.383Z,7.33
2023-02-03T07:13:06.891Z,7.47
2023-02-03T07:14:09.444Z,7.97
2023-02-03T07:15:12.683Z,7.55
2023-02-03T07:16:15.751Z,7.18
2023-02-03T07:17:18.365Z,7.28
2023-02-03T07:18:45.476Z,7.53
2023-02-03T07:19:46.994Z,7.37
2023-02-03T07:20:49.488Z,7.77
2023-02-03T07:21:51.878Z,13.47
2023-02-03T07:22:56.305Z,24.05
2023-02-03T07:23:59.262Z,12.62
2023-02-03T07:25:01.619Z,9.30
2023-02-03T07:26:05.954Z,7.72
2023-02-03T07:27:08.264Z,7.22
2023-02-03T07:28:11.033Z,7.12
2023-02-03T07:29:13.520Z,7.57
2023-02-03T07:30:16.769Z,7.15
2023-02-03T07:31:19.336Z,7.35
2023-02-03T07:32:21.802Z,7.70
2023-02-03T07:33:24.323Z,7.82
2023-02-03T07:34:26.658Z,8.13
2023-02-03T07:35:28.990Z,8.38
2023-02-03T07:36:31.564Z,8.63
2023-02-03T07:37:34.095Z,7.70
2023-02-03T07:38:38.282Z,8.10
2023-02-03T07:39:40.796Z,7.82
2023-02-03T07:40:43.157Z,7.78
2023-02-03T07:41:45.526Z,7.67
2023-02-03T07:42:49.444Z,7.60
2023-02-03T07:43:54.043Z,7.58
2023-02-03T07:44:56.366Z,7.25
2023-02-03T07:45:58.699Z,8.05
2023-02-03T07:47:01.128Z,7.70
2023-02-03T07:48:03.645Z,8.62
2023-02-03T07:49:06.105Z,8.48
2023-02-03T07:50:09.966Z,9.07
2023-02-03T07:51:12.588Z,10.48
2023-02-03T07:52:15.050Z,11.22
2023-02-03T07:53:17.941Z,12.08
2023-02-03T07:54:20.506Z,11.48
2023-02-03T07:55:22.988Z,12.07
2023-02-03T07:56:25.383Z,12.17
2023-02-03T07:57:27.851Z,12.07
2023-02-03T07:58:30.633Z,11.72
2023-02-03T07:59:33.029Z,11.07
2023-02-03T08:00:35.857Z,11.05
2023-02-03T08:01:38.250Z,10.50
2023-02-03T08:02:42.179Z,10.20
2023-02-03T08:03:44.593Z,9.73
2023-02-03T08:04:47.032Z,8.77
2023-02-03T08:05:49.943Z,8.87
2023-02-03T08:06:52.355Z,9.20
2023-02-03T08:07:57.541Z,9.12
2023-02-03T08:08:59.934Z,8.90
2023-02-03T08:10:02.443Z,8.38
2023-02-03T08:11:05.184Z,8.15
2023-02-03T08:12:07.652Z,8.40
2023-02-03T08:13:10.035Z,8.82
2023-02-03T08:14:12.420Z,7.88
2023-02-03T08:15:15.487Z,7.45
2023-02-03T08:16:18.012Z,8.40
2023-02-03T08:17:20.443Z,8.50
2023-02-03T08:18:23.075Z,9.47
2023-02-03T08:19:25.644Z,10.40
2023-02-03T08:20:28.278Z,9.03
2023-02-03T08:21:31.194Z,8.87
2023-02-03T08:22:33.694Z,8.13
2023-02-03T08:23:36.378Z,8.25
2023-02-03T08:24:40.261Z,8.75
2023-02-03T08:25:43.240Z,8.12
2023-02-03T08:26:45.743Z,8.33
2023-02-03T08:27:48.557Z,8.47
2023-02-03T08:28:51.347Z,7.87
2023-02-03T08:29:53.881Z,8.20
2023-02-03T08:30:57.933Z,8.93
2023-02-03T08:32:00.427Z,10.27
2023-02-03T08:33:03.417Z,9.27
2023-02-03T08:34:06.171Z,9.33
2023-02-03T08:35:09.333Z,9.15
2023-02-03T08:36:11.901Z,8.67
2023-02-03T08:37:16.096Z,8.20
2023-02-03T08:38:19.072Z,8.20
2023-02-03T08:39:21.819Z,8.82
2023-02-03T08:40:24.413Z,8.62
2023-02-03T08:41:26.895Z,9.08
2023-02-03T08:42:30.215Z,8.38
2023-02-03T08:43:32.752Z,8.05
2023-02-03T08:44:35.323Z,8.73
2023-02-03T08:45:44.621Z,8.63
2023-02-03T08:46:54.782Z,8.93
2023-02-03T08:48:07.483Z,10.15
2023-02-03T08:49:11.747Z,10.58
2023-02-03T08:50:14.273Z,10.73
2023-02-03T08:51:17.326Z,11.62
2023-02-03T08:52:21.880Z,11.25
2023-02-03T08:53:24.494Z,11.68
2023-02-03T08:54:27.288Z,11.37
2023-02-03T08:55:30.423Z,10.90
2023-02-03T08:56:34.225Z,10.45
2023-02-03T08:57:37.566Z,10.67
2023-02-03T08:58:40.644Z,11.02
2023-02-03T08:59:43.945Z,10.48
2023-02-03T09:01:08.892Z,9.20
2023-02-03T09:02:15.769Z,9.00
2023-02-03T09:03:18.188Z,8.97
2023-02-03T09:04:41.774Z,9.50
2023-02-03T09:05:44.277Z,8.75
2023-02-03T09:06:50.016Z,9.15
2023-02-03T09:07:52.432Z,8.53
2023-02-03T09:08:54.816Z,8.52
2023-02-03T09:09:57.336Z,8.18
2023-02-03T09:11:00.224Z,7.92
2023-02-03T09:12:02.761Z,7.67
2023-02-03T09:13:05.215Z,7.92
2023-02-03T09:14:07.882Z,7.43
2023-02-03T09:15:10.672Z,8.15
2023-02-03T09:16:17.225Z,8.18
2023-02-03T09:17:19.793Z,8.90
2023-02-03T09:18:22.130Z,9.17
2023-02-03T09:19:24.603Z,8.38
2023-02-03T09:20:27.950Z,9.28
2023-02-03T09:21:36.043Z,9.03
2023-02-03T09:22:43.009Z,9.20
2023-02-03T09:23:46.141Z,9.35
2023-02-03T09:24:50.680Z,9.40
2023-02-03T09:25:53.013Z,9.62
2023-02-03T09:26:56.192Z,9.28
2023-02-03T09:27:58.817Z,9.27
2023-02-03T09:29:01.302Z,9.12
2023-02-03T09:30:04.172Z,9.18
2023-02-03T09:31:17.954Z,10.42
2023-02-03T09:32:20.395Z,20.68
2023-02-03T09:33:22.939Z,13.93
2023-02-03T09:34:25.361Z,13.68
2023-02-03T09:35:29.434Z,11.58
2023-02-03T09:36:33.516Z,10.55
2023-02-03T09:37:44.696Z,10.30
2023-02-03T09:38:56.115Z,9.28
2023-02-03T09:40:02.587Z,9.33
2023-02-03T09:41:18.374Z,9.93
2023-02-03T09:42:55.180Z,9.83
2023-02-03T09:44:06.699Z,9.45
2023-02-03T09:45:21.159Z,9.52
2023-02-03T09:46:35.109Z,10.57
2023-02-03T09:47:45.725Z,10.07
2023-02-03T09:48:59.853Z,9.95
2023-02-03T09:50:10.740Z,10.88
2023-02-03T09:51:34.631Z,10.63
2023-02-03T09:52:41.839Z,9.60
2023-02-03T09:53:50.080Z,9.42
2023-02-03T09:55:03.567Z,10.35
2023-02-03T09:56:06.224Z,10.53
2023-02-03T09:57:16.986Z,10.32
2023-02-03T09:58:22.994Z,10.07
2023-02-03T09:59:25.474Z,10.22
2023-02-03T10:00:33.140Z,9.90
2023-02-03T10:01:46.074Z,9.80
2023-02-03T10:03:03.667Z,9.07
2023-02-03T10:04:33.395Z,9.37
2023-02-03T10:05:48.317Z,10.22
2023-02-03T10:06:53.004Z,9.52
2023-02-03T10:08:07.726Z,9.70
2023-02-03T10:09:39.882Z,9.35
2023-02-03T10:10:50.212Z,9.50
2023-02-03T10:11:58.672Z,10.15
2023-02-03T10:13:37.251Z,9.35
2023-02-03T10:15:04.032Z,9.15
2023-02-03T10:16:22.199Z,9.57
2023-02-03T10:17:40.488Z,11.38
2023-02-03T10:18:51.024Z,10.90
2023-02-03T10:20:24.688Z,10.43
2023-02-03T10:21:47.271Z,11.95
2023-02-03T10:22:54.687Z,12.65
2023-02-03T10:23:59.750Z,14.57
2023-02-03T10:25:20.817Z,17.12
2023-02-03T10:26:27.304Z,15.22
2023-02-03T10:27:32.481Z,16.22
2023-02-03T10:28:42.475Z,18.13
2023-02-03T10:29:45.270Z,15.72
2023-02-03T10:30:54.593Z,13.65
2023-02-03T10:31:58.666Z,11.68
2023-02-03T10:33:11.897Z,11.45
2023-02-03T10:34:21.946Z,10.57
2023-02-03T10:35:40.697Z,10.30
2023-02-03T10:36:57.637Z,10.07
2023-02-03T10:38:13.824Z,10.40
2023-02-03T10:39:43.094Z,10.28
2023-02-03T10:40:46.365Z,10.95
2023-02-03T10:41:49.668Z,10.45
2023-02-03T10:43:11.702Z,10.63
2023-02-03T10:44:16.573Z,10.53
2023-02-03T10:45:20.561Z,10.37
2023-02-03T10:46:32.950Z,11.37
2023-02-03T10:47:44.063Z,14.50
2023-02-03T10:48:50.870Z,16.25
2023-02-03T10:49:55.960Z,16.17
2023-02-03T10:50:58.745Z,13.38
2023-02-03T10:52:05.136Z,12.25
2023-02-03T10:53:23.956Z,12.40
2023-02-03T10:54:28.321Z,10.90
2023-02-03T10:55:31.798Z,12.37
2023-02-03T10:56:39.008Z,12.50
2023-02-03T10:57:41.705Z,12.25
2023-02-03T10:58:54.556Z,11.35
2023-02-03T11:00:22.404Z,11.15
2023-02-03T11:01:27.958Z,10.42
2023-02-03T11:02:31.140Z,10.83
2023-02-03T11:03:34.198Z,12.43
2023-02-03T11:04:36.971Z,11.83
2023-02-03T11:05:39.365Z,10.77
2023-02-03T11:06:55.879Z,10.80
2023-02-03T11:07:58.323Z,12.52
2023-02-03T11:09:00.722Z,11.62
2023-02-03T11:10:03.102Z,10.98
2023-02-03T11:11:11.202Z,10.28
2023-02-03T11:12:16.247Z,10.13
2023-02-03T11:13:24.963Z,10.50
2023-02-03T11:14:40.579Z,10.02
2023-02-03T11:16:04.001Z,10.58
2023-02-03T11:17:16.620Z,11.62
2023-02-03T11:18:27.789Z,11.92
2023-02-03T11:19:30.985Z,13.15
2023-02-03T11:20:36.737Z,14.18
2023-02-03T11:21:39.062Z,14.03
2023-02-03T11:22:43.814Z,12.98
2023-02-03T11:23:50.803Z,13.23
2023-02-03T11:24:53.505Z,12.38
2023-02-03T11:25:56.844Z,12.10
2023-02-03T11:27:20.147Z,11.98
2023-02-03T11:28:32.542Z,12.97
2023-02-03T11:30:11.502Z,12.73
2023-02-03T11:31:27.152Z,13.20
2023-02-03T11:32:40.017Z,13.80
2023-02-03T11:33:50.720Z,13.87
2023-02-03T11:35:02.445Z,13.93
2023-02-03T11:36:07.424Z,13.68
2023-02-03T11:37:33.595Z,13.87
2023-02-03T11:38:37.023Z,13.38
2023-02-03T11:39:39.933Z,13.83
2023-02-03T11:40:43.137Z,14.00
2023-02-03T11:41:47.596Z,14.30
2023-02-03T11:42:52.176Z,14.50
2023-02-03T11:44:06.329Z,14.68
2023-02-03T11:45:38.417Z,15.18
2023-02-03T11:46:46.665Z,15.32
2023-02-03T11:48:22.299Z,16.55
2023-02-03T11:50:14.155Z,17.35
2023-02-03T11:52:11.469Z,17.63
2023-02-03T11:53:33.117Z,17.95
2023-02-03T11:56:38.111Z,18.07
2023-02-03T11:58:31.537Z,16.70
2023-02-03T12:00:03.567Z,17.18
2023-02-03T12:01:25.376Z,16.53
2023-02-03T12:02:33.849Z,17.08
2023-02-03T12:04:00.207Z,15.80
2023-02-03T12:05:28.010Z,14.83
2023-02-03T12:06:33.485Z,14.05
2023-02-03T12:07:36.422Z,13.92
2023-02-03T12:08:59.897Z,13.73
2023-02-03T12:10:13.896Z,12.97
2023-02-03T12:11:29.128Z,12.37
2023-02-03T12:12:51.755Z,12.43
2023-02-03T12:14:16.285Z,12.08
2023-02-03T12:15:56.029Z,11.42
2023-02-03T12:17:05.381Z,13.20
2023-02-03T12:18:17.784Z,15.12
2023-02-03T12:19:32.428Z,11.87
2023-02-03T12:20:38.560Z,16.20
2023-02-03T12:21:54.156Z,16.40
2023-02-03T12:23:35.882Z,10.95
2023-02-03T12:25:16.864Z,9.13
2023-02-03T12:28:35.873Z,7.73
2023-02-03T12:30:17.528Z,7.80
2023-02-03T12:31:56.051Z,8.02
2023-02-03T12:33:32.342Z,7.93
2023-02-03T12:34:45.500Z,7.47
2023-02-03T12:36:30.723Z,7.48
2023-02-03T13:00:59.939Z,9.88
2023-02-03T13:02:15.118Z,11.75
2023-02-03T13:03:42.818Z,12.07
2023-02-03T13:04:57.069Z,10.38
2023-02-03T13:06:11.506Z,9.93
2023-02-03T13:07:32.582Z,8.95
2023-02-03T13:08:45.499Z,8.40
2023-02-03T13:10:01.395Z,9.23
2023-02-03T13:11:25.494Z,9.85
2023-02-03T13:12:42.397Z,10.32
2023-02-03T13:13:55.861Z,9.78
2023-02-03T13:15:23.294Z,9.12
2023-02-03T13:16:36.459Z,10.00
2023-02-03T13:18:07.893Z,10.13
2023-02-03T13:20:18.077Z,15.13
2023-02-03T13:22:36.491Z,12.10
2023-02-03T13:26:29.592Z,10.73
2023-02-03T13:30:18.673Z,8.22
2023-02-03T13:31:36.445Z,8.00
2023-02-03T13:32:50.925Z,8.48
2023-02-03T13:34:28.870Z,7.63
2023-02-03T13:35:49.795Z,7.97
2023-02-03T13:37:13.547Z,8.15
2023-02-03T13:38:16.524Z,7.77
2023-02-03T13:39:50.194Z,8.18
2023-02-03T13:41:11.748Z,8.07
2023-02-03T13:42:25.546Z,8.87
2023-02-03T13:43:38.978Z,9.28
2023-02-03T13:44:44.320Z,10.42
2023-02-03T13:45:50.228Z,10.82
2023-02-03T13:46:53.021Z,11.47
2023-02-03T13:48:19.934Z,11.82
2023-02-03T13:49:31.557Z,12.73
2023-02-03T13:50:34.370Z,11.78
2023-02-03T13:51:43.873Z,10.97
2023-02-03T13:52:57.251Z,9.85
2023-02-03T13:54:04.551Z,9.32
2023-02-03T13:55:07.468Z,9.40
2023-02-03T13:56:23.001Z,9.50
2023-02-03T13:57:40.863Z,10.20
2023-02-03T13:58:43.430Z,10.43
2023-02-03T13:59:46.611Z,10.10
2023-02-03T14:00:51.856Z,9.47
2023-02-03T14:02:20.091Z,9.38
2023-02-03T14:03:25.317Z,9.42
2023-02-03T14:04:27.793Z,9.93
2023-02-03T14:05:42.446Z,9.38
2023-02-03T14:06:52.581Z,9.43
2023-02-03T14:07:54.914Z,12.32
2023-02-03T14:09:00.135Z,11.02
2023-02-03T14:10:14.367Z,11.10
2023-02-03T14:11:34.769Z,10.43
2023-02-03T14:12:40.056Z,10.57
2023-02-03T14:13:48.178Z,12.83
2023-02-03T14:14:50.578Z,11.97
2023-02-03T14:16:23.744Z,11.67
2023-02-03T14:17:36.940Z,10.17
2023-02-03T14:18:49.509Z,9.78
2023-02-03T14:19:52.108Z,9.10
2023-02-03T14:20:58.627Z,9.47
2023-02-03T14:22:04.405Z,9.25
2023-02-03T14:23:08.458Z,10.12
2023-02-03T14:24:12.735Z,10.23
2023-02-03T14:25:19.454Z,10.63
2023-02-03T14:26:31.875Z,10.17
2023-02-03T14:27:34.534Z,10.43
2023-02-03T14:28:47.010Z,11.33
2023-02-03T14:30:14.219Z,12.62
2023-02-03T14:31:20.458Z,12.03
2023-02-03T14:32:22.835Z,11.50
2023-02-03T14:33:47.907Z,10.50
2023-02-03T14:34:50.807Z,12.10
2023-02-03T14:35:53.245Z,11.80
2023-02-03T14:36:56.108Z,12.27
2023-02-03T14:38:04.588Z,12.68
2023-02-03T14:39:18.754Z,11.52
2023-02-03T14:40:47.315Z,11.50
2023-02-03T14:42:17.473Z,11.67
2023-02-03T14:43:24.425Z,11.47
2023-02-03T14:44:42.031Z,12.48
2023-02-03T14:46:19.524Z,14.13
2023-02-03T14:47:47.556Z,16.70
2023-02-03T14:49:04.236Z,27.37
2023-02-03T14:50:24.926Z,21.53
2023-02-03T14:51:30.267Z,22.60
2023-02-03T14:53:07.953Z,25.32
2023-02-03T14:54:16.816Z,19.45
2023-02-03T14:55:46.567Z,17.10
2023-02-03T14:57:07.726Z,16.50
2023-02-03T14:58:24.934Z,14.20
2023-02-03T14:59:43.913Z,14.38
2023-02-03T15:00:46.385Z,14.70
2023-02-03T15:01:48.760Z,14.85
2023-02-03T15:03:13.913Z,14.53
2023-02-03T15:04:16.330Z,13.15
2023-02-03T15:05:18.723Z,12.63
2023-02-03T15:06:51.418Z,13.52
2023-02-03T15:07:53.791Z,16.48
2023-02-03T15:08:59.911Z,22.63
2023-02-03T15:10:02.749Z,22.40
2023-02-03T15:11:29.476Z,21.88
2023-02-03T15:12:37.913Z,21.43
2023-02-03T15:13:40.252Z,18.82
2023-02-03T15:14:42.650Z,17.77
2023-02-03T15:15:45.731Z,16.38
2023-02-03T15:16:55.610Z,16.83
2023-02-03T15:18:00.771Z,17.28
2023-02-03T15:19:09.020Z,16.92
2023-02-03T15:20:38.760Z,18.85
2023-02-03T15:21:42.447Z,19.55
2023-02-03T15:22:44.802Z,22.47
2023-02-03T15:23:49.407Z,25.30
2023-02-03T15:24:54.217Z,28.00
2023-02-03T15:26:01.905Z,25.73
2023-02-03T15:27:04.384Z,23.67
2023-02-03T15:28:19.384Z,22.87
2023-02-03T15:29:32.815Z,18.62